Porters Sideling, Pennsylvania
Current Conditions -  °F | °C
As of 3:53 PM on Friday 19 Dec 2014 (Local Time) from KTHV Reporting Station
Scattered Clouds Scattered Clouds  
Wind Chill: 33°   Ceiling: Unl
Heat Index: 38°   Visibility: 10mi
Dew Point: 22°   Wind: 6mph
Humidity: 53%   Direction: 330°NNW
Pressure: 30.13"   Gusts: NA
Location:  39.83°N, 76.89°W
Report Text: KTHV 192053Z AUTO 33005KT 10SM SCT041 03/M06 A3013 RMK AO2 SLP209 T00331056 53012
Loading
Personal Weather Stations






























Interactive Weather Map New forecast layout! Learn more

10-Day Weather Forecast

Advertisements
Track Severe Weather on mobile